Time;durP1;ratioP1;P1;durP2;ratioP2;P2;SDS_P1;SDS_P2;PMS_P1;PMS_P2;Temp;Humidity;BMP_temperature;BMP_pressure;BME280_temperature;BME280_humidity;BME280_pressure;Samples;Min_cycle;Max_cycle;Signal;HPM_P1;HPM_P2
2021/03/01 00:00:08;;;;;;;1.60;1.40;;;5.10;98.20;;;;;;5088779;28;20548;-76
2021/03/01 00:02:34;;;;;;;1.60;1.50;;;5.10;98.20;;;;;;5076633;28;20556;-76
2021/03/01 00:05:01;;;;;;;1.60;1.33;;;5.10;98.20;;;;;;5088241;28;20553;-76
2021/03/01 00:07:27;;;;;;;1.60;1.37;;;5.00;98.20;;;;;;5076065;28;20478;-77
2021/03/01 00:09:53;;;;;;;1.60;1.37;;;5.10;98.20;;;;;;5087091;28;20940;-78
2021/03/01 00:12:20;;;;;;;1.60;1.33;;;5.10;98.20;;;;;;5074029;28;21014;-77
2021/03/01 00:14:47;;;;;;;1.60;1.40;;;5.00;98.20;;;;;;5085637;28;20521;-77
2021/03/01 00:17:13;;;;;;;1.60;1.30;;;5.00;98.20;;;;;;5077464;28;20527;-77
2021/03/01 00:19:40;;;;;;;1.67;1.50;;;5.00;98.20;;;;;;5089004;28;20464;-77
2021/03/01 00:22:06;;;;;;;1.60;1.40;;;5.00;98.20;;;;;;5077725;28;20493;-78
2021/03/01 00:24:33;;;;;;;1.60;1.33;;;5.00;98.20;;;;;;5087985;28;20569;-77
2021/03/01 00:26:59;;;;;;;1.60;1.30;;;5.00;98.20;;;;;;5050873;28;20486;-77
2021/03/01 00:29:26;;;;;;;1.60;1.40;;;5.00;98.20;;;;;;5064363;28;20473;-77
2021/03/01 00:31:52;;;;;;;1.60;1.40;;;4.90;98.20;;;;;;5054038;28;20476;-77
2021/03/01 00:34:19;;;;;;;1.60;1.40;;;4.90;98.20;;;;;;5061093;28;20476;-78
2021/03/01 00:36:45;;;;;;;1.60;1.40;;;4.90;98.20;;;;;;5045475;28;20478;-77
2021/03/01 00:39:11;;;;;;;1.60;1.40;;;4.90;98.20;;;;;;5057763;28;20486;-76
2021/03/01 00:41:38;;;;;;;1.60;1.37;;;4.90;98.20;;;;;;5045336;28;20509;-77
2021/03/01 00:44:04;;;;;;;1.60;1.40;;;4.80;98.20;;;;;;5058074;28;20522;-78
2021/03/01 00:46:31;;;;;;;1.60;1.50;;;4.80;98.20;;;;;;5044072;28;20490;-77
2021/03/01 00:48:57;;;;;;;1.60;1.40;;;4.80;98.20;;;;;;5059644;28;20477;-76
2021/03/01 00:51:24;;;;;;;1.60;1.30;;;4.80;98.20;;;;;;5043714;28;20490;-77
2021/03/01 00:53:50;;;;;;;1.60;1.40;;;4.80;98.20;;;;;;5073374;28;20458;-76
2021/03/01 00:56:16;;;;;;;1.70;1.50;;;4.80;98.20;;;;;;5059602;28;20535;-77
2021/03/01 00:58:42;;;;;;;1.63;1.40;;;4.80;98.20;;;;;;5069450;28;20473;-76
2021/03/01 01:01:09;;;;;;;1.60;1.40;;;4.80;98.20;;;;;;5059354;28;20543;-75
2021/03/01 01:03:36;;;;;;;1.60;1.40;;;4.70;98.20;;;;;;5069541;28;20465;-77
2021/03/01 01:06:03;;;;;;;1.60;1.40;;;4.70;98.20;;;;;;5058697;28;20557;-77
2021/03/01 01:08:29;;;;;;;1.60;1.37;;;4.70;98.20;;;;;;5068800;28;20489;-76
2021/03/01 01:10:56;;;;;;;1.60;1.40;;;4.70;98.20;;;;;;5060191;28;20512;-76
2021/03/01 01:13:22;;;;;;;1.60;1.40;;;4.70;98.20;;;;;;5084292;28;21132;-77
2021/03/01 01:15:48;;;;;;;1.60;1.40;;;4.70;98.20;;;;;;5064517;28;20465;-77
2021/03/01 01:18:15;;;;;;;1.60;1.50;;;4.60;98.20;;;;;;5084710;28;20496;-76
2021/03/01 01:20:42;;;;;;;1.60;1.50;;;4.60;98.20;;;;;;5068952;28;20906;-77
2021/03/01 01:23:08;;;;;;;1.60;1.30;;;4.60;98.20;;;;;;5075672;28;20556;-78
2021/03/01 01:25:34;;;;;;;1.60;1.40;;;4.60;98.20;;;;;;5069718;28;20518;-76
2021/03/01 01:28:01;;;;;;;1.60;1.40;;;4.60;98.20;;;;;;5074699;28;20539;-76
2021/03/01 01:30:28;;;;;;;1.60;1.30;;;4.50;98.20;;;;;;5069367;28;20624;-76
2021/03/01 01:32:55;;;;;;;1.60;1.43;;;4.50;98.20;;;;;;5074843;28;20557;-77
2021/03/01 01:35:22;;;;;;;1.60;1.50;;;4.50;98.20;;;;;;5069505;28;20454;-76
2021/03/01 01:37:50;;;;;;;1.60;1.40;;;4.50;98.20;;;;;;5074705;28;20485;-75
2021/03/01 01:40:18;;;;;;;1.70;1.60;;;4.40;98.20;;;;;;5069964;28;21062;-76
2021/03/01 01:42:45;;;;;;;1.60;1.40;;;4.40;98.20;;;;;;5073581;28;20495;-76
2021/03/01 01:45:14;;;;;;;1.60;1.30;;;4.40;98.20;;;;;;5069110;28;20525;-76
2021/03/01 01:47:41;;;;;;;1.60;1.40;;;4.40;98.20;;;;;;5073397;28;20489;-76
2021/03/01 01:50:10;;;;;;;1.60;1.40;;;4.30;98.20;;;;;;5069758;28;20453;-76
2021/03/01 01:52:37;;;;;;;1.60;1.43;;;4.30;98.20;;;;;;5072234;28;20489;-76
2021/03/01 01:55:05;;;;;;;1.80;1.70;;;4.30;98.20;;;;;;5070691;28;20466;-77
2021/03/01 01:57:32;;;;;;;1.60;1.30;;;4.30;98.20;;;;;;5072574;28;20549;-77
2021/03/01 01:59:59;;;;;;;1.60;1.40;;;4.20;98.20;;;;;;5070895;28;20518;-76
2021/03/01 02:02:26;;;;;;;1.60;1.40;;;4.20;98.20;;;;;;5072244;28;20552;-76
2021/03/01 02:04:55;;;;;;;1.60;1.40;;;4.20;98.20;;;;;;5071870;28;20488;-77
2021/03/01 02:07:28;;;;;;;1.60;1.40;;;4.20;98.20;;;;;;5071595;28;20477;-76
2021/03/01 02:10:10;;;;;;;1.63;1.40;;;4.20;98.20;;;;;;5072912;28;20466;-76
2021/03/01 02:12:45;;;;;;;1.60;1.40;;;4.10;98.20;;;;;;5074311;28;20752;-77
2021/03/01 02:15:19;;;;;;;1.60;1.40;;;4.10;98.20;;;;;;5070684;28;20437;-76
2021/03/01 02:17:45;;;;;;;1.63;1.43;;;4.10;98.20;;;;;;5074504;28;20474;-76
2021/03/01 02:20:12;;;;;;;1.67;1.43;;;4.10;98.20;;;;;;5070559;28;20466;-76
2021/03/01 02:22:39;;;;;;;1.67;1.47;;;4.00;98.20;;;;;;5074287;28;20485;-77
2021/03/01 02:25:07;;;;;;;1.70;1.60;;;4.00;98.20;;;;;;5090545;28;20482;-75
2021/03/01 02:27:39;;;;;;;1.70;1.50;;;4.00;98.20;;;;;;5079007;28;20501;-76
2021/03/01 02:30:09;;;;;;;1.67;1.43;;;4.00;98.20;;;;;;5090862;28;20445;-77
2021/03/01 02:32:37;;;;;;;1.60;1.40;;;4.00;98.20;;;;;;5079006;28;20496;-76
2021/03/01 02:35:06;;;;;;;1.77;1.67;;;3.90;98.20;;;;;;5090217;28;20622;-77
2021/03/01 02:37:34;;;;;;;1.60;1.40;;;3.90;98.20;;;;;;5075670;28;20488;-77
2021/03/01 02:40:03;;;;;;;1.60;1.40;;;3.90;98.20;;;;;;5072646;28;20454;-76
2021/03/01 02:42:31;;;;;;;1.60;1.40;;;3.80;98.20;;;;;;5074228;28;20486;-76
2021/03/01 02:44:58;;;;;;;1.80;1.70;;;3.80;98.20;;;;;;5069617;28;20454;-77
2021/03/01 02:47:26;;;;;;;1.60;1.40;;;3.70;98.20;;;;;;5063380;28;20836;-77
2021/03/01 02:49:56;;;;;;;1.60;1.40;;;3.70;98.20;;;;;;5063376;28;20459;-77
2021/03/01 02:52:24;;;;;;;1.67;1.50;;;3.70;98.20;;;;;;5066856;28;20490;-76
2021/03/01 02:54:51;;;;;;;1.60;1.40;;;3.70;98.20;;;;;;5073901;28;20478;-76
2021/03/01 02:57:20;;;;;;;30.83;4.80;;;3.70;98.20;;;;;;5072912;28;20480;-76
2021/03/01 02:59:48;;;;;;;1.63;1.43;;;3.60;98.20;;;;;;5085790;28;20461;-76
2021/03/01 03:02:16;;;;;;;1.70;1.60;;;3.60;98.20;;;;;;5072373;28;20496;-76
2021/03/01 03:04:43;;;;;;;1.60;1.43;;;3.60;98.20;;;;;;5075309;28;20458;-76
2021/03/01 03:07:10;;;;;;;1.60;1.40;;;3.60;98.20;;;;;;5070971;28;20541;-76
2021/03/01 03:09:36;;;;;;;1.63;1.40;;;3.50;98.20;;;;;;5076427;28;20564;-78
2021/03/01 03:12:04;;;;;;;1.63;1.50;;;3.50;98.20;;;;;;5070751;28;20507;-76
2021/03/01 03:14:35;;;;;;;1.60;1.40;;;3.50;98.20;;;;;;5077185;28;20523;-76
2021/03/01 03:17:02;;;;;;;1.60;1.40;;;3.50;98.20;;;;;;5055494;28;20521;-76
2021/03/01 03:19:29;;;;;;;1.63;1.50;;;3.50;98.20;;;;;;5057949;28;20478;-76
2021/03/01 03:21:55;;;;;;;1.60;1.40;;;3.50;98.20;;;;;;5050046;28;20521;-77
2021/03/01 03:24:21;;;;;;;1.63;1.50;;;3.50;98.20;;;;;;5080180;28;20488;-76
2021/03/01 03:26:48;;;;;;;1.60;1.50;;;3.50;98.20;;;;;;5080114;28;20542;-76
2021/03/01 03:29:14;;;;;;;1.63;1.50;;;3.50;98.20;;;;;;5087460;28;20478;-76
2021/03/01 03:31:41;;;;;;;1.70;1.50;;;3.50;98.20;;;;;;5066956;28;20558;-76
2021/03/01 03:34:08;;;;;;;1.60;1.40;;;3.50;98.20;;;;;;5077827;28;20454;-77
2021/03/01 03:36:40;;;;;;;1.60;1.40;;;3.50;98.20;;;;;;5059273;28;20479;-77
2021/03/01 03:39:10;;;;;;;1.70;1.50;;;3.50;98.20;;;;;;5068897;28;20465;-77
2021/03/01 03:41:37;;;;;;;1.60;1.50;;;3.40;98.20;;;;;;5058351;28;20658;-78
2021/03/01 03:44:05;;;;;;;1.70;1.50;;;3.40;98.20;;;;;;5068234;28;20469;-77
2021/03/01 03:46:32;;;;;;;1.70;1.50;;;3.40;98.20;;;;;;5057217;28;20534;-77
2021/03/01 03:49:00;;;;;;;1.60;1.40;;;3.40;98.20;;;;;;5065172;28;20462;-77
2021/03/01 03:51:30;;;;;;;1.60;1.50;;;3.40;98.20;;;;;;5052418;28;20533;-77
2021/03/01 03:54:01;;;;;;;1.60;1.50;;;3.40;98.20;;;;;;5051632;28;20467;-77
2021/03/01 03:56:30;;;;;;;1.67;1.43;;;3.30;98.20;;;;;;5061118;28;20541;-76
2021/03/01 03:59:01;;;;;;;1.60;1.43;;;3.30;98.20;;;;;;5075887;28;20447;-76
2021/03/01 04:01:30;;;;;;;1.60;1.40;;;3.30;98.20;;;;;;5066214;28;20576;-77
2021/03/01 04:04:00;;;;;;;1.60;1.40;;;3.30;98.20;;;;;;5085918;28;20488;-77
2021/03/01 04:06:26;;;;;;;1.60;1.40;;;3.20;98.20;;;;;;5065621;28;20480;-77
2021/03/01 04:08:55;;;;;;;1.60;1.40;;;3.20;98.20;;;;;;5087496;28;20454;-76
2021/03/01 04:11:24;;;;;;;1.70;1.60;;;3.20;98.20;;;;;;5064999;28;20550;-78
2021/03/01 04:13:54;;;;;;;1.60;1.50;;;3.20;98.20;;;;;;5088908;28;20508;-78
2021/03/01 04:16:22;;;;;;;1.70;1.50;;;3.10;98.20;;;;;;5061353;28;20525;-77
2021/03/01 04:18:53;;;;;;;1.60;1.40;;;3.10;98.20;;;;;;5086865;28;20540;-77
2021/03/01 04:21:23;;;;;;;1.70;1.50;;;3.10;98.20;;;;;;5069769;28;20504;-77
2021/03/01 04:23:51;;;;;;;1.60;1.40;;;3.10;98.20;;;;;;5045959;28;20483;-77
2021/03/01 04:26:18;;;;;;;1.60;1.50;;;3.10;98.20;;;;;;5048096;28;21161;-77
2021/03/01 04:28:45;;;;;;;1.63;1.53;;;3.10;98.20;;;;;;5094567;28;20481;-77
2021/03/01 04:31:13;;;;;;;1.70;1.60;;;3.10;98.20;;;;;;5077221;28;20541;-76
2021/03/01 04:33:40;;;;;;;1.67;1.50;;;3.10;98.20;;;;;;5084294;28;20485;-77
2021/03/01 04:36:09;;;;;;;1.73;1.63;;;3.00;98.20;;;;;;5075867;28;20525;-77
2021/03/01 04:38:37;;;;;;;1.63;1.53;;;3.00;98.20;;;;;;5078054;28;20457;-76
2021/03/01 04:41:04;;;;;;;1.70;1.60;;;3.00;98.20;;;;;;5073757;28;20453;-77
2021/03/01 04:43:33;;;;;;;1.67;1.50;;;3.00;98.20;;;;;;5062832;28;20733;-77
2021/03/01 04:45:59;;;;;;;1.73;1.63;;;3.00;98.20;;;;;;5055063;28;20478;-78
2021/03/01 04:48:27;;;;;;;1.70;1.60;;;2.90;98.20;;;;;;5076767;28;20510;-77
2021/03/01 04:50:54;;;;;;;1.63;1.50;;;2.90;98.20;;;;;;5051072;28;20472;-78
2021/03/01 04:53:21;;;;;;;1.63;1.53;;;2.90;98.20;;;;;;5073105;28;20472;-78
2021/03/01 04:55:49;;;;;;;1.67;1.50;;;2.80;98.20;;;;;;5071195;28;20460;-78
2021/03/01 04:58:17;;;;;;;1.70;1.60;;;2.80;98.20;;;;;;5061177;28;20467;-78
2021/03/01 05:00:44;;;;;;;1.70;1.60;;;2.80;98.20;;;;;;5053018;28;20458;-79
2021/03/01 05:03:11;;;;;;;1.60;1.50;;;2.70;98.20;;;;;;5062337;28;20523;-79
2021/03/01 05:05:38;;;;;;;1.63;1.50;;;2.70;98.20;;;;;;5045468;28;20957;-79
2021/03/01 05:08:07;;;;;;;1.60;1.50;;;2.70;98.20;;;;;;5071657;28;20476;-77
2021/03/01 05:10:35;;;;;;;1.70;1.60;;;2.70;98.20;;;;;;5068185;28;21181;-77
2021/03/01 05:13:03;;;;;;;1.60;1.50;;;2.60;98.20;;;;;;5055091;28;20490;-78
2021/03/01 05:15:29;;;;;;;1.63;1.40;;;2.60;98.20;;;;;;5067070;28;20457;-76
2021/03/01 05:17:56;;;;;;;1.63;1.40;;;2.60;98.20;;;;;;5072320;28;20537;-79
2021/03/01 05:20:23;;;;;;;1.60;1.50;;;2.60;98.20;;;;;;5067717;28;20943;-77
2021/03/01 05:22:49;;;;;;;1.63;1.40;;;2.50;98.20;;;;;;5084828;28;20571;-77
2021/03/01 05:25:17;;;;;;;1.63;1.50;;;2.50;98.20;;;;;;5066939;28;20461;-78
2021/03/01 05:27:43;;;;;;;1.60;1.50;;;2.50;98.20;;;;;;5087670;28;20801;-77
2021/03/01 05:30:12;;;;;;;1.67;1.50;;;2.50;98.20;;;;;;5068424;28;20469;-77
2021/03/01 05:32:39;;;;;;;1.60;1.40;;;2.40;98.20;;;;;;5071035;28;20481;-78
2021/03/01 05:35:06;;;;;;;1.63;1.50;;;2.40;98.20;;;;;;5066889;28;20485;-79
2021/03/01 05:37:32;;;;;;;1.63;1.50;;;2.40;98.20;;;;;;5053704;28;20550;-77
2021/03/01 05:39:59;;;;;;;1.70;1.50;;;2.40;98.20;;;;;;5068297;28;21083;-76
2021/03/01 05:42:27;;;;;;;1.67;1.50;;;2.30;98.20;;;;;;5055595;28;20524;-78
2021/03/01 05:44:55;;;;;;;1.60;1.50;;;2.30;98.20;;;;;;5065217;28;20529;-78
2021/03/01 05:47:24;;;;;;;1.63;1.50;;;2.30;98.20;;;;;;5046458;28;20474;-78
2021/03/01 05:49:51;;;;;;;1.83;1.73;;;2.30;98.20;;;;;;5045394;28;20950;-77
2021/03/01 05:52:20;;;;;;;1.67;1.50;;;2.20;98.20;;;;;;5053444;28;20482;-78
2021/03/01 05:54:47;;;;;;;1.70;1.60;;;2.20;98.20;;;;;;5066028;28;20462;-78
2021/03/01 05:57:14;;;;;;;1.63;1.50;;;2.20;98.20;;;;;;5064022;28;20486;-77
2021/03/01 05:59:41;;;;;;;1.70;1.50;;;2.20;98.20;;;;;;5060605;28;20507;-78
2021/03/01 06:02:08;;;;;;;1.63;1.50;;;2.10;98.20;;;;;;5049170;28;20574;-77
2021/03/01 06:04:39;;;;;;;1.67;1.57;;;2.10;98.20;;;;;;5062096;28;20967;-78
2021/03/01 06:07:06;;;;;;;1.60;1.50;;;2.10;98.20;;;;;;5048344;28;20537;-78
2021/03/01 06:09:32;;;;;;;1.70;1.50;;;2.10;98.20;;;;;;5039921;28;20471;-78
2021/03/01 06:11:58;;;;;;;1.60;1.47;;;2.10;98.20;;;;;;5038141;28;20866;-78
2021/03/01 06:14:25;;;;;;;1.70;1.50;;;2.10;98.20;;;;;;5043100;28;20459;-77
2021/03/01 06:17:12;;;;;;;1.63;1.50;;;2.00;98.20;;;;;;5047931;28;20485;-77
2021/03/01 06:19:51;;;;;;;1.73;1.63;;;2.00;98.20;;;;;;5066094;28;20522;-77
2021/03/01 06:22:19;;;;;;;1.80;1.70;;;2.00;98.20;;;;;;5061716;28;20493;-77
2021/03/01 06:25:07;;;;;;;1.70;1.60;;;2.00;98.20;;;;;;5060891;28;20482;-77
2021/03/01 06:27:46;;;;;;;1.60;1.40;;;2.00;98.20;;;;;;5062697;28;20481;-77
2021/03/01 06:30:14;;;;;;;1.60;1.50;;;2.00;98.20;;;;;;5060948;28;20906;-77
2021/03/01 06:32:41;;;;;;;1.63;1.50;;;2.00;98.20;;;;;;5065570;28;20493;-77
2021/03/01 06:35:27;;;;;;;1.70;1.60;;;2.10;98.20;;;;;;5059571;28;20467;-77
2021/03/01 06:38:23;;;;;;;1.67;1.50;;;2.10;98.20;;;;;;5046570;28;20568;-77
2021/03/01 06:41:23;;;;;;;1.70;1.60;;;2.10;98.20;;;;;;5032617;28;20455;-77
2021/03/01 06:44:00;;;;;;;1.70;1.60;;;2.10;98.20;;;;;;5052885;28;20991;-78
2021/03/01 06:46:27;;;;;;;1.60;1.50;;;2.10;98.20;;;;;;5036360;28;20522;-78
2021/03/01 06:48:54;;;;;;;1.70;1.60;;;2.10;98.20;;;;;;5048167;28;20549;-80
2021/03/01 06:51:22;;;;;;;1.73;1.63;;;2.20;98.20;;;;;;5036527;28;20965;-78
2021/03/01 06:53:58;;;;;;;1.80;1.70;;;2.20;98.20;;;;;;5060816;28;20938;-78
2021/03/01 06:56:37;;;;;;;1.70;1.50;;;2.20;98.20;;;;;;5042055;28;20484;-78
2021/03/01 06:59:11;;;;;;;1.70;1.60;;;2.30;98.20;;;;;;5062220;28;20485;-78
2021/03/01 07:01:49;;;;;;;1.70;1.60;;;2.40;98.20;;;;;;5047311;28;20497;-78
2021/03/01 07:04:22;;;;;;;1.67;1.50;;;2.60;98.20;;;;;;5074581;28;20469;-78
2021/03/01 07:06:51;;;;;;;1.60;1.50;;;2.70;98.20;;;;;;5067944;28;20472;-78
2021/03/01 07:09:19;;;;;;;1.80;1.70;;;2.80;98.20;;;;;;5075836;28;20458;-77
2021/03/01 07:11:46;;;;;;;1.60;1.40;;;3.00;98.20;;;;;;5048675;28;20482;-76
2021/03/01 07:14:15;;;;;;;1.60;1.50;;;3.10;98.20;;;;;;5063798;28;20482;-77
2021/03/01 07:16:44;;;;;;;1.60;1.40;;;3.20;98.20;;;;;;5057857;28;20484;-76
2021/03/01 07:19:13;;;;;;;1.60;1.40;;;3.40;98.20;;;;;;5065424;28;20477;-77
2021/03/01 07:21:42;;;;;;;1.60;1.50;;;3.50;98.20;;;;;;5058342;28;20469;-75
2021/03/01 07:24:11;;;;;;;1.60;1.50;;;3.70;98.20;;;;;;5065569;28;20457;-77
2021/03/01 07:26:38;;;;;;;1.70;1.40;;;3.80;98.20;;;;;;5044541;28;20524;-76
2021/03/01 07:29:08;;;;;;;1.70;1.50;;;3.90;98.20;;;;;;5056904;28;20469;-76
2021/03/01 07:31:36;;;;;;;1.67;1.40;;;4.00;98.20;;;;;;5058654;28;20492;-76
2021/03/01 07:34:07;;;;;;;1.60;1.40;;;4.20;98.20;;;;;;5064853;28;20554;-76
2021/03/01 07:36:35;;;;;;;1.60;1.30;;;4.30;98.20;;;;;;5057352;28;20542;-76
2021/03/01 07:39:04;;;;;;;1.60;1.30;;;4.40;98.20;;;;;;5061366;28;20451;-76
2021/03/01 07:41:32;;;;;;;1.60;1.50;;;4.50;98.20;;;;;;5060971;28;20487;-76
2021/03/01 07:43:59;;;;;;;1.63;1.50;;;4.70;98.20;;;;;;5071792;28;20526;-76
2021/03/01 07:46:46;;;;;;;1.70;1.40;;;4.80;98.20;;;;;;5153442;27;20581;-76
2021/03/01 07:49:13;;;;;;;1.70;1.40;;;4.90;98.20;;;;;;5125382;27;20448;-78
2021/03/01 07:51:42;;;;;;;1.60;1.40;;;5.10;98.20;;;;;;5105198;28;20483;-77
2021/03/01 07:54:09;;;;;;;1.60;1.30;;;5.30;98.20;;;;;;5108988;28;20457;-77
2021/03/01 07:56:51;;;;;;;1.60;1.40;;;5.40;98.20;;;;;;5090293;28;20483;-77
2021/03/01 07:59:32;;;;;;;1.60;1.40;;;5.50;98.20;;;;;;5098121;28;20467;-77
2021/03/01 08:02:22;;;;;;;1.60;1.30;;;5.70;98.20;;;;;;5090008;28;20545;-78
2021/03/01 08:04:50;;;;;;;1.70;1.40;;;5.90;98.20;;;;;;5082518;28;20485;-75
2021/03/01 08:07:16;;;;;;;1.63;1.40;;;6.00;98.20;;;;;;5084880;28;20563;-78
2021/03/01 08:09:51;;;;;;;1.60;1.30;;;6.10;98.20;;;;;;5094338;28;20461;-78
2021/03/01 08:12:54;;;;;;;1.70;1.50;;;6.20;98.20;;;;;;5092999;28;20494;-76
2021/03/01 08:15:24;;;;;;;1.70;1.40;;;6.40;98.20;;;;;;5064419;28;20476;-76
2021/03/01 08:17:52;;;;;;;37.37;5.00;;;6.60;98.20;;;;;;5113985;27;20519;-76
2021/03/01 08:20:55;;;;;;;1.60;1.30;;;6.60;98.20;;;;;;5094189;28;20460;-76
2021/03/01 08:23:36;;;;;;;1.60;1.30;;;6.70;98.20;;;;;;5078925;28;20552;-76
2021/03/01 08:26:04;;;;;;;1.60;1.30;;;6.90;98.20;;;;;;5083385;27;20576;-77
2021/03/01 08:28:47;;;;;;;1.60;1.20;;;7.00;98.20;;;;;;5118575;28;20468;-77
2021/03/01 08:31:40;;;;;;;1.60;1.30;;;7.10;98.20;;;;;;5079843;28;20475;-76
2021/03/01 08:34:27;;;;;;;1.60;1.27;;;7.20;98.20;;;;;;5102194;28;21212;-76
2021/03/01 08:36:55;;;;;;;1.60;1.20;;;7.30;98.20;;;;;;5085439;28;20472;-76
2021/03/01 08:39:58;;;;;;;1.60;1.20;;;7.40;98.20;;;;;;5095766;28;20472;-76
2021/03/01 08:42:59;;;;;;;1.60;1.20;;;7.50;98.20;;;;;;5104069;27;20471;-77
2021/03/01 08:45:31;;;;;;;2.93;2.63;;;7.60;98.20;;;;;;5109954;28;20509;-77
2021/03/01 08:47:59;;;;;;;1.67;1.37;;;7.70;98.20;;;;;;5113387;27;20733;-76
2021/03/01 08:50:29;;;;;;;1.60;1.20;;;7.80;98.20;;;;;;5104195;28;20603;-76
2021/03/01 08:52:55;;;;;;;1.60;1.30;;;7.90;98.20;;;;;;5111241;27;20487;-77
2021/03/01 08:55:23;;;;;;;1.60;1.30;;;8.00;98.20;;;;;;5108586;28;20942;-77
2021/03/01 08:58:01;;;;;;;1.60;1.30;;;8.10;97.90;;;;;;5101246;27;20486;-76
2021/03/01 09:00:29;;;;;;;1.60;1.20;;;8.20;97.10;;;;;;5091286;28;20492;-76
2021/03/01 09:03:19;;;;;;;1.60;1.20;;;8.40;97.20;;;;;;5097805;28;20483;-76
2021/03/01 09:05:47;;;;;;;1.60;1.20;;;8.50;96.70;;;;;;5091245;28;20553;-77
2021/03/01 09:08:15;;;;;;;1.60;1.30;;;8.70;96.90;;;;;;5057227;28;20933;-76
2021/03/01 09:10:43;;;;;;;1.60;1.30;;;8.80;96.70;;;;;;5069514;28;20473;-76
2021/03/01 09:13:16;;;;;;;1.60;1.30;;;8.90;95.90;;;;;;5095446;28;20494;-76
2021/03/01 09:15:43;;;;;;;1.60;1.20;;;9.00;95.80;;;;;;5072865;28;20458;-76
2021/03/01 09:18:10;;;;;;;1.60;1.30;;;9.10;94.70;;;;;;5096569;28;20796;-76
2021/03/01 09:20:56;;;;;;;1.60;1.30;;;9.20;94.50;;;;;;5077929;28;20500;-76
2021/03/01 09:23:45;;;;;;;1.60;1.30;;;9.30;94.80;;;;;;5062735;28;20961;-76
2021/03/01 09:26:23;;;;;;;1.57;1.17;;;9.40;93.70;;;;;;5073236;28;20484;-76
2021/03/01 09:28:52;;;;;;;1.60;1.20;;;9.50;92.60;;;;;;5096176;28;20468;-76
2021/03/01 09:31:18;;;;;;;2.80;1.40;;;9.60;92.70;;;;;;5073989;28;20492;-76
2021/03/01 09:33:46;;;;;;;1.57;1.17;;;9.70;93.40;;;;;;5094516;28;20552;-76
2021/03/01 09:36:19;;;;;;;1.53;1.10;;;9.80;92.70;;;;;;5060948;28;21099;-76
2021/03/01 09:38:51;;;;;;;1.53;1.10;;;10.00;92.00;;;;;;5087722;28;20515;-76
2021/03/01 09:41:18;;;;;;;1.60;1.40;;;10.00;91.20;;;;;;5068086;28;20556;-76
2021/03/01 09:43:48;;;;;;;1.53;1.10;;;10.20;90.90;;;;;;5093869;28;20544;-75
2021/03/01 09:46:15;;;;;;;1.60;1.43;;;10.40;89.80;;;;;;5066269;28;20487;-74
2021/03/01 09:48:45;;;;;;;1.60;1.10;;;10.50;88.90;;;;;;5092918;28;20481;-75
2021/03/01 09:51:13;;;;;;;1.57;1.10;;;10.60;88.50;;;;;;5065282;28;20793;-76
2021/03/01 09:53:40;;;;;;;1.60;1.10;;;10.70;87.60;;;;;;5095706;28;20469;-74
2021/03/01 09:56:07;;;;;;;1.60;1.10;;;10.70;89.10;;;;;;5061933;28;20949;-74
2021/03/01 09:58:34;;;;;;;1.50;1.00;;;10.70;87.70;;;;;;5098147;28;20685;-76
2021/03/01 10:01:08;;;;;;;1.60;1.10;;;10.80;89.10;;;;;;5059123;28;20466;-77
2021/03/01 10:03:36;;;;;;;1.57;1.10;;;11.00;88.90;;;;;;5097455;28;20809;-77
2021/03/01 10:06:03;;;;;;;1.60;1.10;;;11.10;87.70;;;;;;5061543;28;20540;-76
2021/03/01 10:08:30;;;;;;;1.60;1.10;;;11.20;87.40;;;;;;5103401;28;20457;-77
2021/03/01 10:10:57;;;;;;;1.60;1.20;;;11.40;87.40;;;;;;5066628;28;20465;-76
2021/03/01 10:13:26;;;;;;;1.60;1.17;;;11.50;88.00;;;;;;5103140;28;20527;-76
2021/03/01 10:15:54;;;;;;;1.53;1.00;;;11.70;88.00;;;;;;5065300;28;20473;-75
2021/03/01 10:18:26;;;;;;;1.60;1.10;;;11.90;87.80;;;;;;5101636;28;20461;-75
2021/03/01 10:20:55;;;;;;;1.60;1.10;;;11.90;87.20;;;;;;5064364;28;20457;-76
2021/03/01 10:23:37;;;;;;;1.57;1.00;;;12.00;86.80;;;;;;5102502;28;20454;-77
2021/03/01 10:26:18;;;;;;;1.53;1.00;;;12.10;85.80;;;;;;5067634;28;20477;-76
2021/03/01 10:28:56;;;;;;;1.60;1.10;;;12.00;84.80;;;;;;5095922;28;20991;-76
2021/03/01 10:31:25;;;;;;;1.60;1.10;;;12.20;85.70;;;;;;5073432;28;20487;-76
2021/03/01 10:33:57;;;;;;;1.60;1.00;;;12.40;86.10;;;;;;5092907;28;20469;-76
2021/03/01 10:36:25;;;;;;;1.57;1.00;;;12.60;85.10;;;;;;5071639;28;20472;-76
2021/03/01 10:38:55;;;;;;;1.60;1.10;;;12.70;84.10;;;;;;5093568;28;20483;-77
2021/03/01 10:41:22;;;;;;;1.60;1.10;;;12.70;83.70;;;;;;5063539;28;20486;-76
2021/03/01 10:43:54;;;;;;;1.50;1.00;;;12.90;84.10;;;;;;5094425;28;20487;-75
2021/03/01 10:46:35;;;;;;;1.50;1.00;;;12.90;83.40;;;;;;5069544;28;20482;-75
2021/03/01 10:49:03;;;;;;;1.57;1.10;;;13.00;83.80;;;;;;5089247;28;20481;-76
2021/03/01 10:51:30;;;;;;;1.60;1.10;;;13.20;83.30;;;;;;5071683;28;20479;-76
2021/03/01 10:53:57;;;;;;;1.60;1.00;;;13.30;83.70;;;;;;5091022;28;20499;-75
2021/03/01 10:56:24;;;;;;;1.57;1.00;;;13.40;82.50;;;;;;5068871;28;20475;-76
2021/03/01 10:58:50;;;;;;;1.57;1.00;;;13.40;82.00;;;;;;5093926;28;20457;-76
2021/03/01 11:01:18;;;;;;;1.60;1.10;;;13.30;80.70;;;;;;5068752;28;20539;-75
2021/03/01 11:03:45;;;;;;;1.60;1.00;;;13.30;81.50;;;;;;5098836;28;20450;-77
2021/03/01 11:06:13;;;;;;;1.50;1.00;;;13.50;81.90;;;;;;5062858;28;20480;-76
2021/03/01 11:08:43;;;;;;;1.60;1.23;;;13.60;81.80;;;;;;5099088;28;20476;-76
2021/03/01 11:11:12;;;;;;;1.53;1.00;;;13.70;81.30;;;;;;5069621;28;20484;-76
2021/03/01 11:13:39;;;;;;;1.50;1.00;;;13.70;80.80;;;;;;5099202;28;20457;-77
2021/03/01 11:16:06;;;;;;;1.53;1.10;;;13.60;79.90;;;;;;5070844;28;20507;-77
2021/03/01 11:18:32;;;;;;;1.50;1.00;;;13.70;80.90;;;;;;5100403;28;20778;-77
2021/03/01 11:20:59;;;;;;;1.57;1.00;;;13.60;78.90;;;;;;5068630;28;20457;-75
2021/03/01 11:23:25;;;;;;;1.50;1.00;;;13.60;80.10;;;;;;5102133;28;20465;-76
2021/03/01 11:25:52;;;;;;;1.50;1.00;;;13.80;80.80;;;;;;5066874;28;20481;-75
2021/03/01 11:28:19;;;;;;;1.53;1.00;;;14.00;80.80;;;;;;5100477;28;20480;-76
2021/03/01 11:30:47;;;;;;;1.53;1.00;;;14.20;80.50;;;;;;5074756;28;20465;-75
2021/03/01 11:33:13;;;;;;;1.50;1.00;;;14.30;78.90;;;;;;5062013;28;20481;-76
2021/03/01 11:35:40;;;;;;;1.60;1.00;;;14.50;79.70;;;;;;5071044;28;20497;-76
2021/03/01 11:38:07;;;;;;;1.53;1.00;;;14.70;78.60;;;;;;5093653;28;20494;-75
2021/03/01 11:40:34;;;;;;;1.50;1.00;;;14.90;77.30;;;;;;5073697;28;20461;-76
2021/03/01 11:43:00;;;;;;;1.53;1.10;;;14.90;76.90;;;;;;5093827;28;20509;-76
2021/03/01 11:45:29;;;;;;;1.60;1.20;;;15.00;76.50;;;;;;5072855;28;20504;-77
2021/03/01 11:47:55;;;;;;;1.50;0.90;;;14.80;76.30;;;;;;5093858;28;20480;-76
2021/03/01 11:50:22;;;;;;;1.50;1.00;;;14.90;76.90;;;;;;5071455;28;20470;-75
2021/03/01 11:52:51;;;;;;;1.60;1.03;;;15.10;76.90;;;;;;5094400;28;20506;-75
2021/03/01 11:55:18;;;;;;;1.60;1.03;;;15.10;74.80;;;;;;5071048;28;20450;-77
2021/03/01 11:57:45;;;;;;;1.60;1.00;;;14.90;75.10;;;;;;5094444;28;20479;-76
2021/03/01 12:00:12;;;;;;;1.60;1.07;;;15.00;75.30;;;;;;5074273;28;20457;-76
2021/03/01 12:02:40;;;;;;;1.57;1.00;;;15.00;75.40;;;;;;5086316;28;20601;-76
2021/03/01 12:05:07;;;;;;;1.60;1.03;;;15.00;75.80;;;;;;5067354;28;20908;-75
2021/03/01 12:07:34;;;;;;;1.53;1.10;;;15.10;75.90;;;;;;5092343;28;20479;-76
2021/03/01 12:10:00;;;;;;;1.60;1.10;;;15.30;75.30;;;;;;5079556;28;20454;-76
2021/03/01 12:12:26;;;;;;;1.53;0.90;;;15.40;76.00;;;;;;5090941;28;20511;-75
2021/03/01 12:14:53;;;;;;;1.60;1.07;;;15.70;77.90;;;;;;5078445;28;20465;-76
2021/03/01 12:17:21;;;;;;;1.50;1.00;;;15.90;73.50;;;;;;5086824;28;20503;-76
2021/03/01 12:19:48;;;;;;;1.57;1.00;;;15.90;73.10;;;;;;5079576;28;20481;-76
2021/03/01 12:22:14;;;;;;;1.60;1.00;;;16.10;76.10;;;;;;5084917;28;20570;-76
2021/03/01 12:24:41;;;;;;;1.60;1.00;;;16.30;74.20;;;;;;5078793;28;20514;-75
2021/03/01 12:27:07;;;;;;;1.50;1.10;;;16.30;73.40;;;;;;5080403;28;20479;-74
2021/03/01 12:29:34;;;;;;;1.57;1.00;;;16.40;72.70;;;;;;5082288;28;20457;-75
2021/03/01 12:32:00;;;;;;;1.60;1.00;;;16.50;72.60;;;;;;5076036;28;21073;-76
2021/03/01 12:34:26;;;;;;;1.50;1.00;;;16.50;71.40;;;;;;5089699;28;20481;-76
2021/03/01 12:36:54;;;;;;;1.53;0.90;;;16.50;71.50;;;;;;5080612;28;20593;-76
2021/03/01 12:39:20;;;;;;;1.60;1.00;;;16.30;71.70;;;;;;5082644;28;20462;-75
2021/03/01 12:41:46;;;;;;;1.50;0.90;;;16.30;72.50;;;;;;5075828;28;20513;-76
2021/03/01 12:44:13;;;;;;;1.50;0.90;;;16.30;72.00;;;;;;5088548;28;20466;-75
2021/03/01 12:46:39;;;;;;;1.53;0.90;;;16.30;71.40;;;;;;5071921;28;20480;-75
2021/03/01 12:49:06;;;;;;;1.53;1.00;;;16.30;72.10;;;;;;5087603;28;20584;-76
2021/03/01 12:51:32;;;;;;;1.60;1.00;;;16.30;72.70;;;;;;5074005;28;20508;-75
2021/03/01 12:53:59;;;;;;;1.53;1.00;;;16.40;73.30;;;;;;5094021;28;20490;-76
2021/03/01 12:56:26;;;;;;;1.50;0.90;;;16.50;73.50;;;;;;5070099;28;20549;-75
2021/03/01 12:58:52;;;;;;;1.50;0.90;;;16.60;73.70;;;;;;5090183;28;20462;-75
2021/03/01 13:01:18;;;;;;;1.50;1.00;;;16.70;72.60;;;;;;5068203;28;20486;-76
2021/03/01 13:03:45;;;;;;;1.60;0.90;;;16.60;72.40;;;;;;5091787;28;20504;-76
2021/03/01 13:06:11;;;;;;;1.53;0.90;;;16.60;72.50;;;;;;5065203;28;20482;-75